Weather at El Socorro Airport

Public forecast

Using degrees Celsius for public forecast. Weather courtesy of forecast.io.

Closest aviation weather report (METAR) to El Socorro Airport

Closest report is General Ignacio P. Garcia International Airport, 13.8 nm (25.6 km) NE. Retrieved 2021/05/17 22:41 UTC (23 minutes ago):

MMHO 172241Z 25008KT 10SM SKC 32/02 A2986 RMK HZY

Closest aviation forecast (TAF) to El Socorro Airport

Closest forecast is General Ignacio P. Garcia International Airport, 13.8 nm (25.6 km) NE. Retrieved 2021/05/17 18:09 UTC (5 hours ago):

TAF MMHO 171707Z 1718/1818 20010KT P6SM SKC FM180400 24005KT P6SM SKC FM181800 23010KT P6SM SKC